createdAt,value
2019-01-29T00:00:14.086Z,1.53
2019-01-29T00:02:44.119Z,1.93
2019-01-29T00:05:11.965Z,1.73
2019-01-29T00:07:40.591Z,2.07
2019-01-29T00:10:09.206Z,1.97
2019-01-29T00:12:38.427Z,2.13
2019-01-29T00:15:07.061Z,2.30
2019-01-29T00:17:36.004Z,1.83
2019-01-29T00:20:07.544Z,2.00
2019-01-29T00:22:36.166Z,1.70
2019-01-29T00:25:07.795Z,2.13
2019-01-29T00:27:36.449Z,1.70
2019-01-29T00:30:05.086Z,1.73
2019-01-29T00:32:33.951Z,1.90
2019-01-29T00:35:02.551Z,1.83
2019-01-29T00:37:31.507Z,2.13
2019-01-29T00:40:00.396Z,1.53
2019-01-29T00:42:29.023Z,1.80
2019-01-29T00:44:57.972Z,1.90
2019-01-29T00:47:26.586Z,1.87
2019-01-29T00:49:55.185Z,1.50
2019-01-29T00:52:24.118Z,1.60
2019-01-29T00:54:53.015Z,1.73
2019-01-29T00:57:22.008Z,1.60
2019-01-29T00:59:52.341Z,2.17
2019-01-29T01:04:57.761Z,1.80
2019-01-29T01:07:26.670Z,2.20
2019-01-29T01:09:57.216Z,1.40
2019-01-29T01:12:23.922Z,1.70
2019-01-29T01:14:52.535Z,1.87
2019-01-29T01:17:21.146Z,1.40
2019-01-29T01:19:50.109Z,1.50
2019-01-29T01:22:18.745Z,1.80
2019-01-29T01:24:47.377Z,1.60
2019-01-29T01:27:15.975Z,1.60
2019-01-29T01:29:44.610Z,1.70
2019-01-29T01:32:13.222Z,1.77
2019-01-29T01:34:42.203Z,1.70
2019-01-29T01:37:10.816Z,1.70
2019-01-29T01:39:39.445Z,1.37
2019-01-29T01:42:08.361Z,1.60
2019-01-29T01:44:36.968Z,1.37
2019-01-29T01:47:05.930Z,1.50
2019-01-29T01:49:34.916Z,2.00
2019-01-29T01:52:03.514Z,2.10
2019-01-29T01:54:32.123Z,1.60
2019-01-29T01:57:00.746Z,1.53
2019-01-29T01:59:29.647Z,2.07
2019-01-29T02:01:58.537Z,2.00
2019-01-29T02:04:27.142Z,2.03
2019-01-29T02:06:55.726Z,1.60
2019-01-29T02:09:24.701Z,1.80
2019-01-29T02:11:53.331Z,2.23
2019-01-29T02:14:22.271Z,1.97
2019-01-29T02:16:50.878Z,2.07
2019-01-29T02:19:19.501Z,2.53
2019-01-29T02:21:48.138Z,1.77
2019-01-29T02:24:17.109Z,2.03
2019-01-29T02:26:45.726Z,1.97
2019-01-29T02:29:14.677Z,1.90
2019-01-29T02:31:43.272Z,1.83
2019-01-29T02:34:11.896Z,2.40
2019-01-29T02:36:40.502Z,2.00
2019-01-29T02:39:09.138Z,2.67
2019-01-29T02:41:37.761Z,2.47
2019-01-29T02:44:06.386Z,2.30
2019-01-29T02:46:34.996Z,2.33
2019-01-29T02:49:03.625Z,2.37
2019-01-29T02:51:32.244Z,2.43
2019-01-29T02:54:00.925Z,2.40
2019-01-29T02:56:29.792Z,2.30
2019-01-29T02:58:58.729Z,2.40
2019-01-29T03:01:27.675Z,2.13
2019-01-29T03:03:56.312Z,2.10
2019-01-29T03:06:25.249Z,2.93
2019-01-29T03:08:53.882Z,1.93
2019-01-29T03:11:22.509Z,3.03
2019-01-29T03:13:51.145Z,2.40
2019-01-29T03:16:20.021Z,2.60
2019-01-29T03:18:48.769Z,2.23
2019-01-29T03:21:17.259Z,2.43
2019-01-29T03:23:45.894Z,2.67
2019-01-29T03:26:14.622Z,2.80
2019-01-29T03:28:43.250Z,2.40
2019-01-29T03:31:12.191Z,2.47
2019-01-29T03:33:41.075Z,2.43
2019-01-29T03:36:09.708Z,2.87
2019-01-29T03:38:38.651Z,3.10
2019-01-29T03:41:07.251Z,2.53
2019-01-29T03:43:35.890Z,2.70
2019-01-29T03:46:04.515Z,3.00
2019-01-29T03:48:33.399Z,2.77
2019-01-29T03:51:01.999Z,3.43
2019-01-29T03:53:37.920Z,2.83
2019-01-29T03:55:59.579Z,2.57
2019-01-29T03:58:28.201Z,2.87
2019-01-29T04:00:56.816Z,2.60
2019-01-29T04:03:25.796Z,2.83
2019-01-29T04:05:54.787Z,3.10
2019-01-29T04:08:23.394Z,3.03
2019-01-29T04:10:52.360Z,2.90
2019-01-29T04:13:21.248Z,2.60
2019-01-29T04:15:49.889Z,2.73
2019-01-29T04:18:18.501Z,3.10
2019-01-29T04:20:47.405Z,3.13
2019-01-29T04:23:16.010Z,2.47
2019-01-29T04:25:44.626Z,2.93
2019-01-29T04:28:13.236Z,2.90
2019-01-29T04:30:41.870Z,2.60
2019-01-29T04:33:10.487Z,2.47
2019-01-29T04:35:39.113Z,3.23
2019-01-29T04:38:07.759Z,2.40
2019-01-29T04:40:36.393Z,2.50
2019-01-29T04:43:05.358Z,2.30
2019-01-29T04:45:33.994Z,2.77
2019-01-29T04:48:02.619Z,2.53
2019-01-29T04:50:31.262Z,2.83
2019-01-29T04:52:59.872Z,2.27
2019-01-29T04:55:28.506Z,2.63
2019-01-29T05:00:36.024Z,2.30
2019-01-29T05:03:04.667Z,2.07
2019-01-29T05:05:33.642Z,2.40
2019-01-29T05:08:02.259Z,2.53
2019-01-29T05:10:30.911Z,2.67
2019-01-29T05:15:38.352Z,2.50
2019-01-29T05:18:07.302Z,2.50
2019-01-29T05:20:35.924Z,2.73
2019-01-29T05:23:04.532Z,2.50
2019-01-29T05:25:33.460Z,2.40
2019-01-29T05:28:02.071Z,2.40
2019-01-29T05:30:30.805Z,2.83
2019-01-29T05:32:59.444Z,2.20
2019-01-29T05:35:28.072Z,2.70
2019-01-29T05:37:56.685Z,3.23
2019-01-29T05:40:25.662Z,2.57
2019-01-29T05:42:54.261Z,3.13
2019-01-29T05:45:22.931Z,3.33
2019-01-29T05:47:51.536Z,3.23
2019-01-29T05:50:20.430Z,3.17
2019-01-29T05:52:49.326Z,3.43
2019-01-29T05:55:18.001Z,2.90
2019-01-29T05:57:46.551Z,3.40
2019-01-29T06:00:21.510Z,2.73
2019-01-29T06:02:50.404Z,2.97
2019-01-29T06:05:19.049Z,2.83
2019-01-29T06:07:47.634Z,2.50
2019-01-29T06:10:16.627Z,3.23
2019-01-29T06:12:45.252Z,3.07
2019-01-29T06:17:54.908Z,2.97
2019-01-29T06:20:23.555Z,3.27
2019-01-29T06:22:52.155Z,3.40
2019-01-29T06:25:20.789Z,3.43
2019-01-29T06:27:49.808Z,3.60
2019-01-29T06:30:18.455Z,3.33
2019-01-29T06:32:47.379Z,3.87
2019-01-29T06:35:16.062Z,3.53
2019-01-29T06:40:33.195Z,3.40
2019-01-29T06:43:02.105Z,3.60
2019-01-29T06:45:30.825Z,3.57
2019-01-29T06:47:59.443Z,3.47
2019-01-29T06:50:28.068Z,3.70
2019-01-29T06:52:56.701Z,3.33
2019-01-29T06:55:25.710Z,3.00
2019-01-29T06:57:55.852Z,3.20
2019-01-29T07:00:25.981Z,3.50
2019-01-29T07:05:33.153Z,3.90
2019-01-29T07:08:02.127Z,3.03
2019-01-29T07:10:30.769Z,7.33
2019-01-29T07:12:59.699Z,6.57
2019-01-29T07:15:28.691Z,4.20
2019-01-29T07:17:57.300Z,3.50
2019-01-29T07:20:25.934Z,3.43
2019-01-29T07:22:54.949Z,3.13
2019-01-29T07:25:23.571Z,2.90
2019-01-29T07:27:52.224Z,3.37
2019-01-29T07:30:20.799Z,5.70
2019-01-29T07:32:49.684Z,4.60
2019-01-29T07:35:18.679Z,4.13
2019-01-29T07:37:47.286Z,3.80
2019-01-29T07:40:16.320Z,4.20
2019-01-29T07:42:44.861Z,3.37
2019-01-29T07:45:13.501Z,3.67
2019-01-29T07:47:42.406Z,2.90
2019-01-29T07:50:11.038Z,2.83
2019-01-29T07:52:39.671Z,2.77
2019-01-29T07:55:08.306Z,3.03
2019-01-29T07:57:37.247Z,2.50
2019-01-29T08:00:15.458Z,2.43
2019-01-29T08:02:44.440Z,2.83
2019-01-29T08:05:13.097Z,3.00
2019-01-29T08:07:41.726Z,2.93
2019-01-29T08:10:13.122Z,2.67
2019-01-29T08:12:42.178Z,2.70
2019-01-29T08:15:19.781Z,3.17
2019-01-29T08:17:48.414Z,2.63
2019-01-29T08:20:17.051Z,3.20
2019-01-29T08:22:45.671Z,3.50
2019-01-29T08:25:14.281Z,3.10
2019-01-29T08:27:42.930Z,3.10
2019-01-29T08:30:14.354Z,3.27
2019-01-29T08:32:43.306Z,3.83
2019-01-29T08:35:11.941Z,3.70
2019-01-29T08:37:40.558Z,3.40
2019-01-29T08:40:09.570Z,3.00
2019-01-29T08:42:38.533Z,2.90
2019-01-29T08:47:46.352Z,3.37
2019-01-29T08:50:23.775Z,3.70
2019-01-29T08:52:52.429Z,3.47
2019-01-29T08:55:21.031Z,3.03
2019-01-29T08:57:49.663Z,2.93
2019-01-29T09:02:56.861Z,3.20
2019-01-29T09:05:25.478Z,3.77
2019-01-29T09:07:54.114Z,3.53
2019-01-29T09:10:23.055Z,4.00
2019-01-29T09:12:51.690Z,3.77
2019-01-29T09:15:20.323Z,4.27
2019-01-29T09:17:48.962Z,4.43
2019-01-29T09:20:17.585Z,4.30
2019-01-29T09:22:46.228Z,3.80
2019-01-29T09:25:20.968Z,3.77
2019-01-29T09:27:43.824Z,4.10
2019-01-29T09:30:15.399Z,3.77
2019-01-29T09:32:44.040Z,3.80
2019-01-29T09:35:12.942Z,3.43
2019-01-29T09:37:41.568Z,4.57
2019-01-29T09:40:22.502Z,3.83
2019-01-29T09:42:51.393Z,4.20
2019-01-29T09:45:20.030Z,4.00
2019-01-29T09:47:48.648Z,5.23
2019-01-29T09:50:20.329Z,4.23
2019-01-29T09:52:48.984Z,4.40
2019-01-29T09:55:17.623Z,6.13
2019-01-29T09:57:46.500Z,5.30
2019-01-29T10:03:04.166Z,3.97
2019-01-29T10:05:32.782Z,3.43
2019-01-29T10:08:01.412Z,4.47
2019-01-29T10:10:30.155Z,4.57
2019-01-29T10:12:59.149Z,5.23
2019-01-29T10:15:27.785Z,3.93
2019-01-29T10:17:56.392Z,3.63
2019-01-29T10:20:25.026Z,3.53
2019-01-29T10:22:53.667Z,3.60
2019-01-29T10:25:22.575Z,3.30
2019-01-29T10:27:51.455Z,4.00
2019-01-29T10:30:23.149Z,3.47
2019-01-29T10:32:51.786Z,3.63
2019-01-29T10:35:20.824Z,3.40
2019-01-29T10:37:49.450Z,3.60
2019-01-29T10:40:20.828Z,3.40
2019-01-29T10:42:49.446Z,3.03
2019-01-29T10:45:18.417Z,3.33
2019-01-29T10:47:47.041Z,3.37
2019-01-29T10:50:18.724Z,3.13
2019-01-29T10:52:47.373Z,5.40
2019-01-29T10:55:16.012Z,3.77
2019-01-29T10:57:44.632Z,3.83
2019-01-29T11:00:13.265Z,3.70
2019-01-29T11:02:41.889Z,3.50
2019-01-29T11:05:10.521Z,3.37
2019-01-29T11:07:39.514Z,3.63
2019-01-29T11:10:08.504Z,4.10
2019-01-29T11:12:37.152Z,3.77
2019-01-29T11:15:05.801Z,3.97
2019-01-29T11:17:34.761Z,4.07
2019-01-29T11:20:03.646Z,4.00
2019-01-29T11:22:32.272Z,3.80
2019-01-29T11:25:01.227Z,4.43
2019-01-29T11:27:31.050Z,4.43
2019-01-29T11:29:58.797Z,4.00
2019-01-29T11:32:27.420Z,4.60
2019-01-29T11:34:56.029Z,4.30
2019-01-29T11:37:24.666Z,4.90
2019-01-29T11:39:53.636Z,4.70
2019-01-29T11:42:22.264Z,4.03
2019-01-29T11:44:50.887Z,3.07
2019-01-29T11:47:19.511Z,3.30
2019-01-29T11:49:48.110Z,3.10
2019-01-29T11:52:16.746Z,3.40
2019-01-29T11:54:45.340Z,3.60
2019-01-29T11:57:13.982Z,3.57
2019-01-29T11:59:42.595Z,3.70
2019-01-29T12:02:11.203Z,4.27
2019-01-29T12:04:39.818Z,3.63
2019-01-29T12:07:08.442Z,3.60
2019-01-29T12:09:37.430Z,3.70
2019-01-29T12:12:06.060Z,3.90
2019-01-29T12:14:35.001Z,4.20
2019-01-29T12:17:03.622Z,3.60
2019-01-29T12:19:32.244Z,3.07
2019-01-29T12:22:00.861Z,3.20
2019-01-29T12:24:29.487Z,3.10
2019-01-29T12:26:58.421Z,3.50
2019-01-29T12:29:27.034Z,3.30
2019-01-29T12:31:55.679Z,3.20
2019-01-29T12:34:24.283Z,3.07
2019-01-29T12:36:52.895Z,2.90
2019-01-29T12:39:21.847Z,3.30
2019-01-29T12:41:50.460Z,3.33
2019-01-29T12:44:19.093Z,3.23
2019-01-29T12:46:47.702Z,3.60
2019-01-29T12:49:16.324Z,3.10
2019-01-29T12:51:45.303Z,3.13
2019-01-29T12:54:14.259Z,3.77
2019-01-29T12:56:43.137Z,3.37
2019-01-29T12:59:11.752Z,2.60
2019-01-29T13:01:40.367Z,3.30
2019-01-29T13:04:08.986Z,3.30
2019-01-29T13:06:37.610Z,3.47
2019-01-29T13:09:06.257Z,3.97
2019-01-29T13:11:34.886Z,3.37
2019-01-29T13:14:03.536Z,4.27
2019-01-29T13:16:32.151Z,3.73
2019-01-29T13:19:00.771Z,4.97
2019-01-29T13:21:29.376Z,4.73
2019-01-29T13:23:58.382Z,3.93
2019-01-29T13:26:30.198Z,4.37
2019-01-29T13:28:55.975Z,5.30
2019-01-29T13:31:24.916Z,4.47
2019-01-29T13:33:53.569Z,5.13
2019-01-29T13:36:22.490Z,4.37
2019-01-29T13:38:51.137Z,5.43
2019-01-29T13:41:19.754Z,4.03
2019-01-29T13:43:48.380Z,4.57
2019-01-29T13:46:17.144Z,4.00
2019-01-29T13:48:45.769Z,4.03
2019-01-29T13:51:14.634Z,4.37
2019-01-29T13:53:43.258Z,4.03
2019-01-29T13:56:12.174Z,3.70
2019-01-29T13:58:41.063Z,3.03
2019-01-29T14:01:09.669Z,3.13
2019-01-29T14:03:38.630Z,3.17
2019-01-29T14:06:07.519Z,3.10
2019-01-29T14:08:36.137Z,3.00
2019-01-29T14:11:04.759Z,3.43
2019-01-29T14:13:33.776Z,3.53
2019-01-29T14:16:02.402Z,4.03
2019-01-29T14:18:31.042Z,4.10
2019-01-29T14:20:59.651Z,3.57
2019-01-29T14:23:28.615Z,4.10
2019-01-29T14:25:57.501Z,3.90
2019-01-29T14:28:26.112Z,4.17
2019-01-29T14:30:54.757Z,3.90
2019-01-29T14:33:23.660Z,4.90
2019-01-29T14:35:52.287Z,4.63
2019-01-29T14:38:26.713Z,4.47
2019-01-29T14:40:55.328Z,4.77
2019-01-29T14:43:23.961Z,5.40
2019-01-29T14:45:52.596Z,4.93
2019-01-29T14:48:21.216Z,5.20
2019-01-29T14:50:50.181Z,5.00
2019-01-29T14:53:18.814Z,4.57
2019-01-29T14:55:47.431Z,4.90
2019-01-29T14:58:16.434Z,5.40
2019-01-29T15:00:45.060Z,5.17
2019-01-29T15:03:13.709Z,4.27
2019-01-29T15:05:42.696Z,5.90
2019-01-29T15:08:11.576Z,8.07
2019-01-29T15:10:40.242Z,9.40
2019-01-29T15:13:09.152Z,8.00
2019-01-29T15:15:37.806Z,5.60
2019-01-29T15:18:06.419Z,5.23
2019-01-29T15:20:35.413Z,5.30
2019-01-29T15:23:04.028Z,6.70
2019-01-29T15:25:32.983Z,4.90
2019-01-29T15:28:01.871Z,5.00
2019-01-29T15:30:30.516Z,5.60
2019-01-29T15:32:59.125Z,4.80
2019-01-29T15:35:27.749Z,4.57
2019-01-29T15:37:56.370Z,4.83
2019-01-29T15:40:25.001Z,6.13
2019-01-29T15:42:53.632Z,4.70
2019-01-29T15:45:22.337Z,5.63
2019-01-29T15:47:50.935Z,7.07
2019-01-29T15:50:23.109Z,6.53
2019-01-29T15:52:51.800Z,5.93
2019-01-29T15:55:20.446Z,7.13
2019-01-29T15:57:49.357Z,5.87
2019-01-29T16:00:27.014Z,6.60
2019-01-29T16:02:55.939Z,6.60
2019-01-29T16:05:27.440Z,10.60
2019-01-29T16:07:56.375Z,10.20
2019-01-29T16:10:25.034Z,7.77
2019-01-29T16:12:53.952Z,7.00
2019-01-29T16:15:22.604Z,6.30
2019-01-29T16:17:51.527Z,6.20
2019-01-29T16:20:20.457Z,7.60
2019-01-29T16:22:49.086Z,6.37
2019-01-29T16:27:59.038Z,5.10
2019-01-29T16:30:36.888Z,5.90
2019-01-29T16:33:05.572Z,5.47
2019-01-29T16:35:36.882Z,4.07
2019-01-29T16:38:05.531Z,4.23
2019-01-29T16:40:37.120Z,4.10
2019-01-29T16:43:06.111Z,4.37
2019-01-29T16:45:34.761Z,3.27
2019-01-29T16:48:03.442Z,3.40
2019-01-29T16:50:32.475Z,3.10
2019-01-29T16:53:01.081Z,3.20
2019-01-29T16:55:31.721Z,3.30
2019-01-29T16:57:58.352Z,2.87
2019-01-29T17:00:36.420Z,3.00
2019-01-29T17:03:05.068Z,2.90
2019-01-29T17:05:33.993Z,5.67
2019-01-29T17:08:02.985Z,6.70
2019-01-29T17:10:34.397Z,5.57
2019-01-29T17:13:03.325Z,4.40
2019-01-29T17:15:35.201Z,5.47
2019-01-29T17:18:04.179Z,4.13
2019-01-29T17:23:11.505Z,4.00
2019-01-29T17:25:40.143Z,3.80
2019-01-29T17:28:08.749Z,4.13
2019-01-29T17:33:19.230Z,3.60
2019-01-29T17:35:47.864Z,3.33
2019-01-29T17:38:16.475Z,3.37
2019-01-29T17:40:45.467Z,3.13
2019-01-29T17:43:14.099Z,3.30
2019-01-29T17:48:21.298Z,6.20
2019-01-29T17:50:50.241Z,3.83
2019-01-29T17:53:19.232Z,3.43
2019-01-29T17:55:47.858Z,2.80
2019-01-29T17:58:16.804Z,2.97
2019-01-29T18:00:45.702Z,3.43
2019-01-29T18:03:14.687Z,3.57
2019-01-29T18:05:43.603Z,3.00
2019-01-29T18:08:12.577Z,2.90
2019-01-29T18:10:41.558Z,2.80
2019-01-29T18:13:10.214Z,2.67
2019-01-29T18:15:38.830Z,2.73
2019-01-29T18:20:46.355Z,3.00
2019-01-29T18:23:14.954Z,3.43
2019-01-29T18:25:43.567Z,2.77
2019-01-29T18:28:12.197Z,2.00
2019-01-29T18:30:40.814Z,2.70
2019-01-29T18:33:09.423Z,2.37
2019-01-29T18:35:38.327Z,2.40
2019-01-29T18:38:06.933Z,2.83
2019-01-29T18:40:38.641Z,2.90
2019-01-29T18:43:07.257Z,2.80
2019-01-29T18:45:35.957Z,2.60
2019-01-29T18:48:04.553Z,2.77
2019-01-29T18:50:33.174Z,2.40
2019-01-29T18:53:02.083Z,2.63
2019-01-29T18:55:30.734Z,4.90
2019-01-29T19:00:37.912Z,19.10
2019-01-29T19:03:06.540Z,16.77
2019-01-29T19:05:35.154Z,15.07
2019-01-29T19:08:03.776Z,9.47
2019-01-29T19:10:32.369Z,8.90
2019-01-29T19:13:01.017Z,6.23
2019-01-29T19:15:29.968Z,5.37
2019-01-29T19:17:58.858Z,3.87
2019-01-29T19:20:27.486Z,2.77
2019-01-29T19:22:56.549Z,2.87
2019-01-29T19:25:25.314Z,3.30
2019-01-29T19:30:32.769Z,3.27
2019-01-29T19:33:01.384Z,3.10
2019-01-29T19:35:30.015Z,2.93
2019-01-29T19:37:58.978Z,2.87
2019-01-29T19:40:27.599Z,2.20
2019-01-29T19:42:56.221Z,2.93
2019-01-29T19:47:50.633Z,2.90
2019-01-29T19:50:19.259Z,2.83
2019-01-29T19:52:47.900Z,3.23
2019-01-29T19:55:16.510Z,2.93
2019-01-29T19:57:45.479Z,2.60
2019-01-29T20:00:16.876Z,2.77
2019-01-29T20:02:45.489Z,3.07
2019-01-29T20:05:14.098Z,3.37
2019-01-29T20:07:42.732Z,3.17
2019-01-29T20:10:11.349Z,3.20
2019-01-29T20:12:40.347Z,2.73
2019-01-29T20:17:47.558Z,3.40
2019-01-29T20:20:16.180Z,3.20
2019-01-29T20:22:44.810Z,2.87
2019-01-29T20:25:13.431Z,3.50
2019-01-29T20:27:42.381Z,3.40
2019-01-29T20:32:53.702Z,3.70
2019-01-29T20:35:21.194Z,3.40
2019-01-29T20:37:49.800Z,4.30
2019-01-29T20:40:21.677Z,3.37
2019-01-29T20:42:50.320Z,3.73
2019-01-29T20:45:19.246Z,4.30
2019-01-29T20:47:47.867Z,4.10
2019-01-29T20:50:22.570Z,4.17
2019-01-29T20:52:51.538Z,5.27
2019-01-29T20:55:20.162Z,4.37
2019-01-29T20:57:49.110Z,5.00
2019-01-29T21:00:23.994Z,4.40
2019-01-29T21:02:52.618Z,4.57
2019-01-29T21:05:21.517Z,4.20
2019-01-29T21:07:50.154Z,3.90
2019-01-29T21:10:19.100Z,4.60
2019-01-29T21:12:47.737Z,4.70
2019-01-29T21:17:54.451Z,4.53
2019-01-29T21:20:25.962Z,4.67
2019-01-29T21:22:54.895Z,4.63
2019-01-29T21:25:23.529Z,3.87
2019-01-29T21:27:52.471Z,4.50
2019-01-29T21:30:21.095Z,4.93
2019-01-29T21:32:50.038Z,5.00
2019-01-29T21:35:18.639Z,5.60
2019-01-29T21:37:47.275Z,5.63
2019-01-29T21:40:16.003Z,5.80
2019-01-29T21:42:44.877Z,5.53
2019-01-29T21:45:13.512Z,6.80
2019-01-29T21:47:42.461Z,5.60
2019-01-29T21:55:34.207Z,6.47
2019-01-29T21:58:02.843Z,6.07
2019-01-29T22:00:34.496Z,5.80
2019-01-29T22:03:03.107Z,6.13
2019-01-29T22:05:31.731Z,5.10
2019-01-29T22:08:00.353Z,5.00
2019-01-29T22:10:29.279Z,5.10
2019-01-29T22:12:58.194Z,5.40
2019-01-29T22:15:26.817Z,4.97
2019-01-29T22:17:55.460Z,5.67
2019-01-29T22:20:24.096Z,5.03
2019-01-29T22:22:52.718Z,4.97
2019-01-29T22:25:21.357Z,4.70
2019-01-29T22:27:49.973Z,5.07
2019-01-29T22:30:18.955Z,5.03
2019-01-29T22:32:47.587Z,5.30
2019-01-29T22:35:16.211Z,5.53
2019-01-29T22:37:44.859Z,5.40
2019-01-29T22:40:13.564Z,6.43
2019-01-29T22:42:42.199Z,5.10
2019-01-29T22:45:10.866Z,5.10
2019-01-29T22:47:39.498Z,5.27
2019-01-29T22:52:47.353Z,5.73
2019-01-29T22:55:15.967Z,4.93
2019-01-29T22:57:44.593Z,5.53
2019-01-29T23:00:19.595Z,5.37
2019-01-29T23:02:48.243Z,5.70
2019-01-29T23:05:16.851Z,5.73
2019-01-29T23:07:45.803Z,6.07
2019-01-29T23:10:14.789Z,5.47
2019-01-29T23:12:43.424Z,5.43
2019-01-29T23:15:12.056Z,5.67
2019-01-29T23:17:40.690Z,5.13
2019-01-29T23:20:09.324Z,6.03
2019-01-29T23:22:37.960Z,6.30
2019-01-29T23:25:06.844Z,6.60
2019-01-29T23:27:35.788Z,6.40
2019-01-29T23:32:46.566Z,6.20
2019-01-29T23:35:15.174Z,5.80
2019-01-29T23:37:43.822Z,6.50
2019-01-29T23:40:15.659Z,6.47
2019-01-29T23:42:44.581Z,6.03
2019-01-29T23:45:13.215Z,6.20
2019-01-29T23:47:41.815Z,6.03
2019-01-29T23:50:16.207Z,6.13
2019-01-29T23:52:44.820Z,6.70
2019-01-29T23:55:13.723Z,6.60
2019-01-29T23:57:42.625Z,6.87
